sensor_id;sensor_type;location;lat;lon;timestamp;pressure;altitude;pressure_sealevel;temperature;humidity
20015;BME280;61787;42.022;23.078;2023-05-21T00:00:07;96458.53;;;15.77;81.27
20015;BME280;61787;42.022;23.078;2023-05-21T00:01:12;96462.81;;;15.82;81.55
20015;BME280;61787;42.022;23.078;2023-05-21T00:02:17;96462.47;;;15.91;81.04
20015;BME280;61787;42.022;23.078;2023-05-21T00:03:20;96463.22;;;15.88;81.07
20015;BME280;61787;42.022;23.078;2023-05-21T00:04:22;96468.66;;;15.88;80.45
20015;BME280;61787;42.022;23.078;2023-05-21T00:05:25;96463.22;;;15.84;80.90
20015;BME280;61787;42.022;23.078;2023-05-21T00:06:27;96458.97;;;15.87;80.98
20015;BME280;61787;42.022;23.078;2023-05-21T00:07:29;96451.63;;;15.87;80.47
20015;BME280;61787;42.022;23.078;2023-05-21T00:08:34;96460.94;;;15.90;79.98
20015;BME280;61787;42.022;23.078;2023-05-21T00:09:36;96451.28;;;15.89;80.35
20015;BME280;61787;42.022;23.078;2023-05-21T00:10:40;96449.56;;;15.70;80.65
20015;BME280;61787;42.022;23.078;2023-05-21T00:11:42;96451.81;;;15.57;81.20
20015;BME280;61787;42.022;23.078;2023-05-21T00:12:44;96451.38;;;15.55;81.54
20015;BME280;61787;42.022;23.078;2023-05-21T00:13:45;96453.00;;;15.63;81.10
20015;BME280;61787;42.022;23.078;2023-05-21T00:14:47;96452.59;;;15.61;81.54
20015;BME280;61787;42.022;23.078;2023-05-21T00:15:49;96449.91;;;15.61;81.09
20015;BME280;61787;42.022;23.078;2023-05-21T00:16:50;96453.75;;;15.60;81.58
20015;BME280;61787;42.022;23.078;2023-05-21T00:17:52;96449.91;;;15.65;81.23
20015;BME280;61787;42.022;23.078;2023-05-21T00:18:54;96456.94;;;15.69;81.26
20015;BME280;61787;42.022;23.078;2023-05-21T00:19:58;96456.25;;;15.80;81.00
20015;BME280;61787;42.022;23.078;2023-05-21T00:21:00;96448.97;;;15.91;79.48
20015;BME280;61787;42.022;23.078;2023-05-21T00:22:02;96455.91;;;15.92;79.89
20015;BME280;61787;42.022;23.078;2023-05-21T00:23:04;96452.34;;;15.81;79.98
20015;BME280;61787;42.022;23.078;2023-05-21T00:24:06;96454.63;;;15.71;80.90
20015;BME280;61787;42.022;23.078;2023-05-21T00:25:09;96443.03;;;15.71;80.96
20015;BME280;61787;42.022;23.078;2023-05-21T00:26:11;96441.41;;;15.59;81.18
20015;BME280;61787;42.022;23.078;2023-05-21T00:27:13;96442.03;;;15.49;82.00
20015;BME280;61787;42.022;23.078;2023-05-21T00:28:14;96447.06;;;15.47;82.27
20015;BME280;61787;42.022;23.078;2023-05-21T00:29:17;96438.16;;;15.43;82.22
20015;BME280;61787;42.022;23.078;2023-05-21T00:30:18;96441.56;;;15.40;82.25
20015;BME280;61787;42.022;23.078;2023-05-21T00:31:20;96436.97;;;15.44;82.70
20015;BME280;61787;42.022;23.078;2023-05-21T00:32:22;96439.72;;;15.48;82.45
20015;BME280;61787;42.022;23.078;2023-05-21T00:33:23;96435.16;;;15.52;81.82
20015;BME280;61787;42.022;23.078;2023-05-21T00:34:27;96440.22;;;15.60;81.89
20015;BME280;61787;42.022;23.078;2023-05-21T00:35:29;96434.47;;;15.65;81.33
20015;BME280;61787;42.022;23.078;2023-05-21T00:36:31;96443.41;;;15.69;80.79
20015;BME280;61787;42.022;23.078;2023-05-21T00:37:35;96433.00;;;15.71;80.73
20015;BME280;61787;42.022;23.078;2023-05-21T00:38:36;96437.59;;;15.67;81.00
20015;BME280;61787;42.022;23.078;2023-05-21T00:39:38;96433.34;;;15.66;81.58
20015;BME280;61787;42.022;23.078;2023-05-21T00:40:40;96436.81;;;15.67;81.51
20015;BME280;61787;42.022;23.078;2023-05-21T00:41:41;96443.38;;;15.66;81.18
20015;BME280;61787;42.022;23.078;2023-05-21T00:42:47;96449.97;;;15.68;81.78
20015;BME280;61787;42.022;23.078;2023-05-21T00:43:50;96455.47;;;15.79;81.52
20015;BME280;61787;42.022;23.078;2023-05-21T00:44:53;96456.63;;;15.85;81.42
20015;BME280;61787;42.022;23.078;2023-05-21T00:45:54;96461.69;;;15.90;81.19
20015;BME280;61787;42.022;23.078;2023-05-21T00:46:57;96467.88;;;15.91;80.64
20015;BME280;61787;42.022;23.078;2023-05-21T00:47:59;96463.53;;;15.75;81.38
20015;BME280;61787;42.022;23.078;2023-05-21T00:49:01;96463.13;;;15.73;80.98
20015;BME280;61787;42.022;23.078;2023-05-21T00:50:03;96460.78;;;15.68;81.56
20015;BME280;61787;42.022;23.078;2023-05-21T00:51:06;96462.34;;;15.69;82.04
20015;BME280;61787;42.022;23.078;2023-05-21T00:52:08;96450.75;;;15.69;82.21
20015;BME280;61787;42.022;23.078;2023-05-21T00:53:10;96455.38;;;15.72;81.76
20015;BME280;61787;42.022;23.078;2023-05-21T00:54:11;96449.97;;;15.72;81.95
20015;BME280;61787;42.022;23.078;2023-05-21T00:55:13;96447.72;;;15.77;81.18
20015;BME280;61787;42.022;23.078;2023-05-21T00:56:15;96444.63;;;15.79;81.32
20015;BME280;61787;42.022;23.078;2023-05-21T00:57:18;96436.91;;;15.77;81.41
20015;BME280;61787;42.022;23.078;2023-05-21T00:58:22;96431.06;;;15.75;80.65
20015;BME280;61787;42.022;23.078;2023-05-21T00:59:24;96422.19;;;15.71;81.23
20015;BME280;61787;42.022;23.078;2023-05-21T01:00:26;96426.75;;;15.64;80.86
20015;BME280;61787;42.022;23.078;2023-05-21T01:01:28;96421.97;;;15.50;81.49
20015;BME280;61787;42.022;23.078;2023-05-21T01:02:35;96418.75;;;15.34;82.12
20015;BME280;61787;42.022;23.078;2023-05-21T01:03:38;96412.41;;;15.16;82.43
20015;BME280;61787;42.022;23.078;2023-05-21T01:04:41;96419.16;;;14.96;83.79
20015;BME280;61787;42.022;23.078;2023-05-21T01:05:43;96419.75;;;14.78;85.08
20015;BME280;61787;42.022;23.078;2023-05-21T01:06:47;96416.94;;;14.68;85.71
20015;BME280;61787;42.022;23.078;2023-05-21T01:07:48;96424.19;;;14.60;86.43
20015;BME280;61787;42.022;23.078;2023-05-21T01:08:50;96431.47;;;14.56;86.84
20015;BME280;61787;42.022;23.078;2023-05-21T01:09:52;96435.75;;;14.61;86.53
20015;BME280;61787;42.022;23.078;2023-05-21T01:10:55;96435.75;;;14.61;87.28
20015;BME280;61787;42.022;23.078;2023-05-21T01:11:58;96433.84;;;14.61;87.78
20015;BME280;61787;42.022;23.078;2023-05-21T01:13:01;96435.66;;;14.54;88.54
20015;BME280;61787;42.022;23.078;2023-05-21T01:14:04;96441.09;;;14.57;88.77
20015;BME280;61787;42.022;23.078;2023-05-21T01:15:09;96438.06;;;14.62;88.74
20015;BME280;61787;42.022;23.078;2023-05-21T01:16:12;96439.16;;;14.58;88.44
20015;BME280;61787;42.022;23.078;2023-05-21T01:17:14;96440.44;;;14.67;87.72
20015;BME280;61787;42.022;23.078;2023-05-21T01:18:16;96432.00;;;14.72;87.47
20015;BME280;61787;42.022;23.078;2023-05-21T01:19:22;96430.50;;;14.75;86.91
20015;BME280;61787;42.022;23.078;2023-05-21T01:20:25;96438.97;;;14.73;87.20
20015;BME280;61787;42.022;23.078;2023-05-21T01:21:29;96431.13;;;14.61;87.89
20015;BME280;61787;42.022;23.078;2023-05-21T01:22:33;96434.88;;;14.53;87.64
20015;BME280;61787;42.022;23.078;2023-05-21T01:23:35;96432.50;;;14.48;87.77
20015;BME280;61787;42.022;23.078;2023-05-21T01:24:37;96432.44;;;14.41;87.48
20015;BME280;61787;42.022;23.078;2023-05-21T01:25:39;96432.28;;;14.34;87.90
20015;BME280;61787;42.022;23.078;2023-05-21T01:26:42;96424.38;;;14.18;89.17
20015;BME280;61787;42.022;23.078;2023-05-21T01:27:44;96421.34;;;14.20;89.38
20015;BME280;61787;42.022;23.078;2023-05-21T01:28:46;96418.31;;;14.25;88.67
20015;BME280;61787;42.022;23.078;2023-05-21T01:29:48;96422.13;;;14.20;88.40
20015;BME280;61787;42.022;23.078;2023-05-21T01:30:50;96413.44;;;14.07;88.48
20015;BME280;61787;42.022;23.078;2023-05-21T01:32:16;96417.91;;;13.96;89.46
20015;BME280;61787;42.022;23.078;2023-05-21T01:33:40;96412.63;;;13.77;90.64
20015;BME280;61787;42.022;23.078;2023-05-21T01:35:59;96420.44;;;13.59;92.84
20015;BME280;61787;42.022;23.078;2023-05-21T01:37:20;96417.97;;;13.47;93.10
20015;BME280;61787;42.022;23.078;2023-05-21T01:41:50;96412.41;;;13.37;94.36
20015;BME280;61787;42.022;23.078;2023-05-21T01:42:54;96412.22;;;13.26;95.56
20015;BME280;61787;42.022;23.078;2023-05-21T01:43:56;96404.50;;;13.24;96.17
20015;BME280;61787;42.022;23.078;2023-05-21T01:44:58;96412.66;;;13.28;96.45
20015;BME280;61787;42.022;23.078;2023-05-21T01:46:02;96401.28;;;13.15;96.54
20015;BME280;61787;42.022;23.078;2023-05-21T01:47:04;96398.34;;;13.24;96.55
20015;BME280;61787;42.022;23.078;2023-05-21T01:48:08;96406.19;;;13.33;96.64
20015;BME280;61787;42.022;23.078;2023-05-21T01:49:10;96402.34;;;13.34;96.68
20015;BME280;61787;42.022;23.078;2023-05-21T01:50:13;96395.19;;;13.45;95.79
20015;BME280;61787;42.022;23.078;2023-05-21T01:51:15;96396.41;;;13.47;95.49
20015;BME280;61787;42.022;23.078;2023-05-21T01:52:17;96401.53;;;13.56;94.91
20015;BME280;61787;42.022;23.078;2023-05-21T01:53:19;96399.38;;;13.65;94.89
20015;BME280;61787;42.022;23.078;2023-05-21T01:54:21;96399.16;;;13.77;94.24
20015;BME280;61787;42.022;23.078;2023-05-21T01:55:24;96399.31;;;13.88;93.53
20015;BME280;61787;42.022;23.078;2023-05-21T01:56:25;96401.03;;;13.99;93.06
20015;BME280;61787;42.022;23.078;2023-05-21T01:57:28;96401.19;;;14.10;92.28
20015;BME280;61787;42.022;23.078;2023-05-21T01:58:30;96408.56;;;14.17;91.67
20015;BME280;61787;42.022;23.078;2023-05-21T01:59:32;96406.66;;;14.17;91.30
20015;BME280;61787;42.022;23.078;2023-05-21T02:00:34;96407.09;;;14.23;91.69
20015;BME280;61787;42.022;23.078;2023-05-21T02:01:37;96399.94;;;14.34;91.29
20015;BME280;61787;42.022;23.078;2023-05-21T02:02:39;96398.09;;;14.41;90.81
20015;BME280;61787;42.022;23.078;2023-05-21T02:03:41;96399.41;;;14.51;90.04
20015;BME280;61787;42.022;23.078;2023-05-21T02:04:43;96395.63;;;14.59;88.86
20015;BME280;61787;42.022;23.078;2023-05-21T02:05:46;96398.75;;;14.61;88.17
20015;BME280;61787;42.022;23.078;2023-05-21T02:06:48;96393.75;;;14.63;88.00
20015;BME280;61787;42.022;23.078;2023-05-21T02:07:50;96398.75;;;14.61;87.73
20015;BME280;61787;42.022;23.078;2023-05-21T02:08:52;96395.88;;;14.47;86.74
20015;BME280;61787;42.022;23.078;2023-05-21T02:09:54;96395.69;;;14.33;87.55
20015;BME280;61787;42.022;23.078;2023-05-21T02:10:55;96399.84;;;14.27;88.08
20015;BME280;61787;42.022;23.078;2023-05-21T02:11:57;96394.03;;;14.25;88.58
20015;BME280;61787;42.022;23.078;2023-05-21T02:12:58;96402.13;;;14.25;88.84
20015;BME280;61787;42.022;23.078;2023-05-21T02:14:00;96401.81;;;14.30;89.33
20015;BME280;61787;42.022;23.078;2023-05-21T02:15:02;96403.47;;;14.38;88.38
20015;BME280;61787;42.022;23.078;2023-05-21T02:16:05;96395.47;;;14.45;87.82
20015;BME280;61787;42.022;23.078;2023-05-21T02:17:10;96404.81;;;14.51;87.73
20015;BME280;61787;42.022;23.078;2023-05-21T02:18:12;96394.84;;;14.59;87.41
20015;BME280;61787;42.022;23.078;2023-05-21T02:19:17;96391.38;;;14.58;86.64
20015;BME280;61787;42.022;23.078;2023-05-21T02:20:19;96398.63;;;14.50;86.22
20015;BME280;61787;42.022;23.078;2023-05-21T02:21:22;96397.44;;;14.48;86.83
20015;BME280;61787;42.022;23.078;2023-05-21T02:22:24;96401.19;;;14.40;88.08
20015;BME280;61787;42.022;23.078;2023-05-21T02:23:26;96391.34;;;14.25;89.12
20015;BME280;61787;42.022;23.078;2023-05-21T02:24:27;96392.69;;;14.12;89.57
20015;BME280;61787;42.022;23.078;2023-05-21T02:25:29;96395.72;;;14.06;90.38
20015;BME280;61787;42.022;23.078;2023-05-21T02:26:31;96403.81;;;14.06;91.04
20015;BME280;61787;42.022;23.078;2023-05-21T02:27:33;96395.81;;;14.14;90.73
20015;BME280;61787;42.022;23.078;2023-05-21T02:28:35;96398.19;;;14.19;90.50
20015;BME280;61787;42.022;23.078;2023-05-21T02:29:38;96401.38;;;14.28;90.28
20015;BME280;61787;42.022;23.078;2023-05-21T02:30:40;96383.81;;;14.37;90.13
20015;BME280;61787;42.022;23.078;2023-05-21T02:31:41;96396.28;;;14.49;89.79
20015;BME280;61787;42.022;23.078;2023-05-21T02:32:43;96402.16;;;14.58;88.74
20015;BME280;61787;42.022;23.078;2023-05-21T02:33:45;96404.59;;;14.67;88.41
20015;BME280;61787;42.022;23.078;2023-05-21T02:34:47;96402.75;;;14.74;88.62
20015;BME280;61787;42.022;23.078;2023-05-21T02:35:48;96403.97;;;14.80;88.17
20015;BME280;61787;42.022;23.078;2023-05-21T02:36:50;96398.25;;;14.89;87.20
20015;BME280;61787;42.022;23.078;2023-05-21T02:37:55;96399.13;;;14.97;86.62
20015;BME280;61787;42.022;23.078;2023-05-21T02:38:59;96405.75;;;15.03;86.58
20015;BME280;61787;42.022;23.078;2023-05-21T02:40:03;96398.44;;;15.07;86.65
20015;BME280;61787;42.022;23.078;2023-05-21T02:41:06;96396.19;;;15.12;86.07
20015;BME280;61787;42.022;23.078;2023-05-21T02:42:07;96403.16;;;15.17;85.59
20015;BME280;61787;42.022;23.078;2023-05-21T02:43:09;96408.97;;;15.19;85.79
20015;BME280;61787;42.022;23.078;2023-05-21T02:44:11;96407.78;;;15.16;85.87
20015;BME280;61787;42.022;23.078;2023-05-21T02:45:13;96407.78;;;15.16;85.43
20015;BME280;61787;42.022;23.078;2023-05-21T02:46:15;96409.31;;;15.14;85.29
20015;BME280;61787;42.022;23.078;2023-05-21T02:47:18;96412.63;;;14.97;85.50
20015;BME280;61787;42.022;23.078;2023-05-21T02:48:20;96411.66;;;14.78;86.68
20015;BME280;61787;42.022;23.078;2023-05-21T02:49:21;96403.31;;;14.57;87.57
20015;BME280;61787;42.022;23.078;2023-05-21T02:50:23;96413.16;;;14.42;88.51
20015;BME280;61787;42.022;23.078;2023-05-21T02:51:24;96407.59;;;14.32;88.98
20015;BME280;61787;42.022;23.078;2023-05-21T02:52:26;96414.47;;;14.26;89.52
20015;BME280;61787;42.022;23.078;2023-05-21T02:53:28;96413.00;;;14.32;89.57
20015;BME280;61787;42.022;23.078;2023-05-21T02:54:30;96408.88;;;14.38;89.76
20015;BME280;61787;42.022;23.078;2023-05-21T02:55:31;96416.97;;;14.38;89.26
20015;BME280;61787;42.022;23.078;2023-05-21T02:56:33;96412.28;;;14.35;89.53
20015;BME280;61787;42.022;23.078;2023-05-21T02:57:35;96416.97;;;14.38;89.48
20015;BME280;61787;42.022;23.078;2023-05-21T02:58:37;96413.25;;;14.49;89.29
20015;BME280;61787;42.022;23.078;2023-05-21T02:59:38;96409.94;;;14.63;88.61
20015;BME280;61787;42.022;23.078;2023-05-21T03:00:40;96413.50;;;14.71;87.83
20015;BME280;61787;42.022;23.078;2023-05-21T03:01:42;96410.50;;;14.79;87.46
20015;BME280;61787;42.022;23.078;2023-05-21T03:02:45;96406.66;;;14.80;86.68
20015;BME280;61787;42.022;23.078;2023-05-21T03:03:47;96398.09;;;14.71;87.07
20015;BME280;61787;42.022;23.078;2023-05-21T03:04:49;96401.84;;;14.63;88.07
20015;BME280;61787;42.022;23.078;2023-05-21T03:05:51;96399.56;;;14.65;87.65
20015;BME280;61787;42.022;23.078;2023-05-21T03:06:54;96405.34;;;14.67;87.68
20015;BME280;61787;42.022;23.078;2023-05-21T03:07:56;96404.22;;;14.68;87.86
20015;BME280;61787;42.022;23.078;2023-05-21T03:08:57;96404.97;;;14.65;88.19
20015;BME280;61787;42.022;23.078;2023-05-21T03:09:59;96411.03;;;14.59;88.37
20015;BME280;61787;42.022;23.078;2023-05-21T03:11:00;96405.94;;;14.50;88.30
20015;BME280;61787;42.022;23.078;2023-05-21T03:12:02;96403.91;;;14.40;88.80
20015;BME280;61787;42.022;23.078;2023-05-21T03:13:04;96400.81;;;14.41;88.93
20015;BME280;61787;42.022;23.078;2023-05-21T03:14:10;96408.59;;;14.46;88.67
20015;BME280;61787;42.022;23.078;2023-05-21T03:15:12;96410.00;;;14.37;89.61
20015;BME280;61787;42.022;23.078;2023-05-21T03:16:16;96404.09;;;14.28;89.86
20015;BME280;61787;42.022;23.078;2023-05-21T03:17:18;96408.69;;;14.27;89.42
20015;BME280;61787;42.022;23.078;2023-05-21T03:18:21;96407.22;;;14.30;89.47
20015;BME280;61787;42.022;23.078;2023-05-21T03:19:23;96407.53;;;14.25;90.38
20015;BME280;61787;42.022;23.078;2023-05-21T03:20:25;96407.53;;;14.25;90.62
20015;BME280;61787;42.022;23.078;2023-05-21T03:21:28;96415.31;;;14.30;90.57
20015;BME280;61787;42.022;23.078;2023-05-21T03:22:30;96406.97;;;14.42;89.90
20015;BME280;61787;42.022;23.078;2023-05-21T03:23:32;96407.50;;;14.51;89.66
20015;BME280;61787;42.022;23.078;2023-05-21T03:24:33;96415.66;;;14.58;89.65
20015;BME280;61787;42.022;23.078;2023-05-21T03:25:35;96421.00;;;14.51;89.25
20015;BME280;61787;42.022;23.078;2023-05-21T03:26:38;96426.13;;;14.33;89.77
20015;BME280;61787;42.022;23.078;2023-05-21T03:27:39;96425.84;;;14.12;90.59
20015;BME280;61787;42.022;23.078;2023-05-21T03:28:41;96424.00;;;13.90;91.95
20015;BME280;61787;42.022;23.078;2023-05-21T03:29:42;96424.31;;;13.85;92.74
20015;BME280;61787;42.022;23.078;2023-05-21T03:30:45;96423.22;;;13.89;92.85
20015;BME280;61787;42.022;23.078;2023-05-21T03:31:47;96423.94;;;13.86;93.01
20015;BME280;61787;42.022;23.078;2023-05-21T03:32:48;96418.53;;;13.86;92.81
20015;BME280;61787;42.022;23.078;2023-05-21T03:33:51;96419.69;;;13.85;93.37
20015;BME280;61787;42.022;23.078;2023-05-21T03:34:54;96427.75;;;13.85;93.26
20015;BME280;61787;42.022;23.078;2023-05-21T03:35:56;96422.91;;;13.94;93.42
20015;BME280;61787;42.022;23.078;2023-05-21T03:36:57;96421.91;;;14.06;92.53
20015;BME280;61787;42.022;23.078;2023-05-21T03:37:59;96429.59;;;14.04;91.16
20015;BME280;61787;42.022;23.078;2023-05-21T03:39:01;96436.38;;;13.94;92.02
20015;BME280;61787;42.022;23.078;2023-05-21T03:40:07;96423.53;;;13.84;92.55
20015;BME280;61787;42.022;23.078;2023-05-21T03:41:09;96431.00;;;13.68;93.38
20015;BME280;61787;42.022;23.078;2023-05-21T03:42:11;96434.00;;;13.63;94.79
20015;BME280;61787;42.022;23.078;2023-05-21T03:43:14;96429.91;;;13.73;94.70
20015;BME280;61787;42.022;23.078;2023-05-21T03:44:16;96428.81;;;13.77;95.27
20015;BME280;61787;42.022;23.078;2023-05-21T03:45:17;96423.22;;;13.89;93.98
20015;BME280;61787;42.022;23.078;2023-05-21T03:46:19;96417.28;;;14.06;93.09
20015;BME280;61787;42.022;23.078;2023-05-21T03:47:20;96420.56;;;14.19;92.43
20015;BME280;61787;42.022;23.078;2023-05-21T03:48:22;96419.13;;;14.29;92.02
20015;BME280;61787;42.022;23.078;2023-05-21T03:49:24;96415.19;;;14.23;91.77
20015;BME280;61787;42.022;23.078;2023-05-21T03:50:26;96424.34;;;14.15;92.30
20015;BME280;61787;42.022;23.078;2023-05-21T03:51:28;96421.66;;;14.15;92.93
20015;BME280;61787;42.022;23.078;2023-05-21T03:52:31;96422.03;;;14.17;93.03
20015;BME280;61787;42.022;23.078;2023-05-21T03:53:32;96419.88;;;14.26;92.50
20015;BME280;61787;42.022;23.078;2023-05-21T03:54:34;96422.25;;;14.31;91.81
20015;BME280;61787;42.022;23.078;2023-05-21T03:55:36;96420.63;;;14.26;92.12
20015;BME280;61787;42.022;23.078;2023-05-21T03:56:38;96415.97;;;14.23;91.96
20015;BME280;61787;42.022;23.078;2023-05-21T03:57:39;96419.03;;;14.22;92.19
20015;BME280;61787;42.022;23.078;2023-05-21T03:58:41;96417.06;;;14.19;91.87
20015;BME280;61787;42.022;23.078;2023-05-21T03:59:43;96410.63;;;14.27;91.39
20015;BME280;61787;42.022;23.078;2023-05-21T04:00:45;96412.28;;;14.35;90.70
20015;BME280;61787;42.022;23.078;2023-05-21T04:01:47;96420.91;;;14.44;91.15
20015;BME280;61787;42.022;23.078;2023-05-21T04:02:48;96414.09;;;14.57;90.36
20015;BME280;61787;42.022;23.078;2023-05-21T04:03:50;96415.91;;;14.79;89.75
20015;BME280;61787;42.022;23.078;2023-05-21T04:04:52;96412.22;;;14.98;87.99
20015;BME280;61787;42.022;23.078;2023-05-21T04:05:54;96409.63;;;15.09;88.36
20015;BME280;61787;42.022;23.078;2023-05-21T04:06:56;96407.81;;;15.20;87.55
20015;BME280;61787;42.022;23.078;2023-05-21T04:07:58;96412.59;;;15.33;87.14
20015;BME280;61787;42.022;23.078;2023-05-21T04:09:00;96418.84;;;15.45;85.72
20015;BME280;61787;42.022;23.078;2023-05-21T04:10:02;96423.56;;;15.51;85.42
20015;BME280;61787;42.022;23.078;2023-05-21T04:11:04;96423.22;;;15.56;85.43
20015;BME280;61787;42.022;23.078;2023-05-21T04:12:06;96421.66;;;15.55;85.12
20015;BME280;61787;42.022;23.078;2023-05-21T04:13:08;96429.69;;;15.48;84.83
20015;BME280;61787;42.022;23.078;2023-05-21T04:14:09;96424.28;;;15.48;85.37
20015;BME280;61787;42.022;23.078;2023-05-21T04:15:11;96415.88;;;15.57;85.10
20015;BME280;61787;42.022;23.078;2023-05-21T04:16:13;96417.47;;;15.61;85.08
20015;BME280;61787;42.022;23.078;2023-05-21T04:17:19;96416.34;;;15.66;85.17
20015;BME280;61787;42.022;23.078;2023-05-21T04:18:22;96422.22;;;15.78;85.74
20015;BME280;61787;42.022;23.078;2023-05-21T04:19:26;96423.13;;;15.97;85.17
20015;BME280;61787;42.022;23.078;2023-05-21T04:20:28;96421.66;;;16.10;84.39
20015;BME280;61787;42.022;23.078;2023-05-21T04:21:29;96424.81;;;16.19;83.32
20015;BME280;61787;42.022;23.078;2023-05-21T04:22:32;96424.00;;;16.15;82.70
20015;BME280;61787;42.022;23.078;2023-05-21T04:23:34;96423.56;;;16.06;83.45
20015;BME280;61787;42.022;23.078;2023-05-21T04:24:38;96423.53;;;15.99;83.87
20015;BME280;61787;42.022;23.078;2023-05-21T04:25:39;96427.72;;;15.93;84.86
20015;BME280;61787;42.022;23.078;2023-05-21T04:26:41;96421.19;;;15.94;84.68
20015;BME280;61787;42.022;23.078;2023-05-21T04:27:43;96426.25;;;16.02;84.90
20015;BME280;61787;42.022;23.078;2023-05-21T04:28:48;96421.66;;;16.10;84.70
20015;BME280;61787;42.022;23.078;2023-05-21T04:29:50;96408.56;;;16.15;84.40
20015;BME280;61787;42.022;23.078;2023-05-21T04:30:52;96418.66;;;16.26;84.73
20015;BME280;61787;42.022;23.078;2023-05-21T04:31:54;96416.75;;;16.33;84.38
20015;BME280;61787;42.022;23.078;2023-05-21T04:32:56;96416.41;;;16.42;84.52
20015;BME280;61787;42.022;23.078;2023-05-21T04:33:58;96421.06;;;16.48;83.94
20015;BME280;61787;42.022;23.078;2023-05-21T04:35:00;96418.00;;;16.53;82.33
20015;BME280;61787;42.022;23.078;2023-05-21T04:36:02;96418.84;;;16.61;81.08
20015;BME280;61787;42.022;23.078;2023-05-21T04:37:04;96421.13;;;16.55;81.28
20015;BME280;61787;42.022;23.078;2023-05-21T04:38:05;96419.56;;;16.54;81.44
20015;BME280;61787;42.022;23.078;2023-05-21T04:39:07;96423.41;;;16.46;82.05
20015;BME280;61787;42.022;23.078;2023-05-21T04:40:09;96429.91;;;16.31;82.97
20015;BME280;61787;42.022;23.078;2023-05-21T04:41:12;96424.44;;;16.24;83.84
20015;BME280;61787;42.022;23.078;2023-05-21T04:42:14;96432.13;;;16.15;83.80
20015;BME280;61787;42.022;23.078;2023-05-21T04:43:16;96423.16;;;16.04;83.85
20015;BME280;61787;42.022;23.078;2023-05-21T04:44:18;96425.44;;;15.95;84.95
20015;BME280;61787;42.022;23.078;2023-05-21T04:45:20;96429.22;;;15.87;84.56
20015;BME280;61787;42.022;23.078;2023-05-21T04:46:25;96426.16;;;15.85;84.78
20015;BME280;61787;42.022;23.078;2023-05-21T04:47:27;96428.09;;;15.88;84.16
20015;BME280;61787;42.022;23.078;2023-05-21T04:48:36;96431.22;;;15.93;83.70
20015;BME280;61787;42.022;23.078;2023-05-21T04:49:37;96423.13;;;15.97;84.32
20015;BME280;61787;42.022;23.078;2023-05-21T04:50:39;96431.66;;;16.06;84.15
20015;BME280;61787;42.022;23.078;2023-05-21T04:51:41;96420.94;;;16.20;84.18
20015;BME280;61787;42.022;23.078;2023-05-21T04:52:43;96425.63;;;16.30;84.97
20015;BME280;61787;42.022;23.078;2023-05-21T04:53:45;96423.72;;;16.34;84.74
20015;BME280;61787;42.022;23.078;2023-05-21T04:54:48;96426.47;;;16.45;84.01
20015;BME280;61787;42.022;23.078;2023-05-21T04:55:50;96424.94;;;16.47;84.53
20015;BME280;61787;42.022;23.078;2023-05-21T04:56:52;96423.03;;;16.51;83.45
20015;BME280;61787;42.022;23.078;2023-05-21T04:57:53;96425.34;;;16.46;83.42
20015;BME280;61787;42.022;23.078;2023-05-21T04:58:55;96420.31;;;16.48;83.43
20015;BME280;61787;42.022;23.078;2023-05-21T04:59:59;96429.25;;;16.55;83.61
20015;BME280;61787;42.022;23.078;2023-05-21T05:01:00;96430.06;;;16.63;83.50
20015;BME280;61787;42.022;23.078;2023-05-21T05:02:04;96424.31;;;16.72;83.23
20015;BME280;61787;42.022;23.078;2023-05-21T05:03:06;96428.94;;;16.75;83.57
20015;BME280;61787;42.022;23.078;2023-05-21T05:04:08;96429.34;;;16.77;83.38
20015;BME280;61787;42.022;23.078;2023-05-21T05:05:10;96424.72;;;16.81;82.78
20015;BME280;61787;42.022;23.078;2023-05-21T05:06:11;96427.44;;;16.84;83.22
20015;BME280;61787;42.022;23.078;2023-05-21T05:07:13;96426.66;;;16.84;82.89
20015;BME280;61787;42.022;23.078;2023-05-21T05:08:15;96422.75;;;16.74;82.92
20015;BME280;61787;42.022;23.078;2023-05-21T05:09:17;96422.75;;;16.74;83.17
20015;BME280;61787;42.022;23.078;2023-05-21T05:10:19;96419.69;;;16.83;82.78
20015;BME280;61787;42.022;23.078;2023-05-21T05:11:21;96418.94;;;16.93;82.31
20015;BME280;61787;42.022;23.078;2023-05-21T05:12:22;96421.28;;;17.01;82.30
20015;BME280;61787;42.022;23.078;2023-05-21T05:13:24;96412.78;;;17.07;81.93
20015;BME280;61787;42.022;23.078;2023-05-21T05:14:26;96415.84;;;16.98;82.18
20015;BME280;61787;42.022;23.078;2023-05-21T05:15:28;96418.19;;;16.92;83.19
20015;BME280;61787;42.022;23.078;2023-05-21T05:16:29;96414.25;;;16.83;84.28
20015;BME280;61787;42.022;23.078;2023-05-21T05:17:31;96420.41;;;16.73;85.03
20015;BME280;61787;42.022;23.078;2023-05-21T05:18:35;96415.38;;;16.64;85.65
20015;BME280;61787;42.022;23.078;2023-05-21T05:19:36;96412.66;;;16.60;86.32
20015;BME280;61787;42.022;23.078;2023-05-21T05:20:38;96419.56;;;16.54;87.67
20015;BME280;61787;42.022;23.078;2023-05-21T05:21:40;96414.56;;;16.56;88.28
20015;BME280;61787;42.022;23.078;2023-05-21T05:22:41;96409.22;;;16.71;87.88
20015;BME280;61787;42.022;23.078;2023-05-21T05:23:43;96411.97;;;16.85;86.60
20015;BME280;61787;42.022;23.078;2023-05-21T05:24:45;96417.81;;;16.97;85.88
20015;BME280;61787;42.022;23.078;2023-05-21T05:25:46;96414.72;;;17.06;84.54
20015;BME280;61787;42.022;23.078;2023-05-21T05:26:48;96417.06;;;17.11;83.89
20015;BME280;61787;42.022;23.078;2023-05-21T05:27:50;96414.75;;;17.13;82.89
20015;BME280;61787;42.022;23.078;2023-05-21T05:28:51;96410.50;;;17.23;82.82
20015;BME280;61787;42.022;23.078;2023-05-21T05:29:53;96412.81;;;17.35;81.67
20015;BME280;61787;42.022;23.078;2023-05-21T05:33:15;96406.63;;;17.70;81.57